createdAt,value
2017-07-02T00:01:52.164Z,48.07
2017-07-02T00:04:18.829Z,48.73
2017-07-02T00:06:46.425Z,52.83
2017-07-02T00:09:13.067Z,56.37
2017-07-02T00:11:40.651Z,42.40
2017-07-02T00:14:07.471Z,54.53
2017-07-02T00:16:34.132Z,39.27
2017-07-02T00:19:00.768Z,44.10
2017-07-02T00:21:27.383Z,32.27
2017-07-02T00:23:54.012Z,46.73
2017-07-02T00:26:20.657Z,43.03
2017-07-02T00:28:47.307Z,43.93
2017-07-02T00:31:13.927Z,31.17
2017-07-02T00:33:40.595Z,36.17
2017-07-02T00:36:07.230Z,36.87
2017-07-02T00:38:34.671Z,26.10
2017-07-02T00:41:02.059Z,29.83
2017-07-02T00:43:29.092Z,27.17
2017-07-02T00:45:56.007Z,33.20
2017-07-02T00:48:22.648Z,25.27
2017-07-02T00:50:51.280Z,34.73
2017-07-02T00:53:17.924Z,31.73
2017-07-02T00:55:45.789Z,28.07
2017-07-02T00:58:12.491Z,31.90
2017-07-02T01:00:39.131Z,31.77
2017-07-02T01:03:05.778Z,26.27
2017-07-02T01:05:32.950Z,30.23
2017-07-02T01:08:00.255Z,31.77
2017-07-02T01:10:26.875Z,35.93
2017-07-02T01:12:53.540Z,27.60
2017-07-02T01:15:20.800Z,22.27
2017-07-02T01:17:50.377Z,27.57
2017-07-02T01:20:17.025Z,32.03
2017-07-02T01:22:43.635Z,32.13
2017-07-02T01:25:10.272Z,26.73
2017-07-02T01:27:36.938Z,29.83
2017-07-02T01:30:06.435Z,32.47
2017-07-02T01:32:33.474Z,32.87
2017-07-02T01:35:03.180Z,23.23
2017-07-02T01:37:29.808Z,19.10
2017-07-02T01:39:59.879Z,27.63
2017-07-02T01:42:28.913Z,24.20
2017-07-02T01:44:55.542Z,35.70
2017-07-02T01:47:22.167Z,28.70
2017-07-02T01:49:50.294Z,30.27
2017-07-02T01:52:21.122Z,33.97
2017-07-02T01:54:53.701Z,33.17
2017-07-02T01:57:23.791Z,31.17
2017-07-02T01:59:56.051Z,27.67
2017-07-02T02:02:29.216Z,21.47
2017-07-02T02:05:03.376Z,27.07
2017-07-02T02:07:30.759Z,24.90
2017-07-02T02:09:58.493Z,26.97
2017-07-02T02:12:27.769Z,25.47
2017-07-02T02:14:56.780Z,28.20
2017-07-02T02:17:27.260Z,27.80
2017-07-02T02:19:56.864Z,29.20
2017-07-02T02:22:24.562Z,31.47
2017-07-02T02:24:51.435Z,22.53
2017-07-02T02:27:19.368Z,29.67
2017-07-02T02:29:45.997Z,30.23
2017-07-02T02:32:12.615Z,29.03
2017-07-02T02:34:39.263Z,24.63
2017-07-02T02:37:05.917Z,34.53
2017-07-02T02:39:32.578Z,35.27
2017-07-02T02:41:59.302Z,26.13
2017-07-02T02:44:26.277Z,20.73
2017-07-02T02:46:52.910Z,34.70
2017-07-02T02:49:19.543Z,31.90
2017-07-02T02:51:46.200Z,30.87
2017-07-02T02:54:12.832Z,43.23
2017-07-02T02:56:39.450Z,23.80
2017-07-02T02:59:06.108Z,29.07
2017-07-02T03:01:32.736Z,37.13
2017-07-02T03:03:59.387Z,33.73
2017-07-02T03:06:26.024Z,37.33
2017-07-02T03:08:52.680Z,29.90
2017-07-02T03:11:19.331Z,32.93
2017-07-02T03:13:45.975Z,38.57
2017-07-02T03:16:12.603Z,37.20
2017-07-02T03:18:39.243Z,28.57
2017-07-02T03:21:06.194Z,34.27
2017-07-02T03:23:32.852Z,31.93
2017-07-02T03:25:59.468Z,34.33
2017-07-02T03:28:26.140Z,44.63
2017-07-02T03:30:52.763Z,26.27
2017-07-02T03:33:19.413Z,36.53
2017-07-02T03:35:46.048Z,51.93
2017-07-02T03:38:12.692Z,33.17
2017-07-02T03:40:39.314Z,37.33
2017-07-02T03:43:05.962Z,41.53
2017-07-02T03:45:32.620Z,31.70
2017-07-02T03:47:59.248Z,36.87
2017-07-02T03:50:25.892Z,42.27
2017-07-02T03:52:52.544Z,39.87
2017-07-02T03:55:19.163Z,24.73
2017-07-02T03:57:45.811Z,39.57
2017-07-02T04:00:12.448Z,31.23
2017-07-02T04:02:39.103Z,30.30
2017-07-02T04:05:05.763Z,37.73
2017-07-02T04:07:32.379Z,33.00
2017-07-02T04:09:59.058Z,34.43
2017-07-02T04:12:25.679Z,44.53
2017-07-02T04:14:52.346Z,42.73
2017-07-02T04:17:18.998Z,40.33
2017-07-02T04:19:45.622Z,40.03
2017-07-02T04:22:12.273Z,43.63
2017-07-02T04:24:38.901Z,38.70
2017-07-02T04:27:05.553Z,28.63
2017-07-02T04:29:32.188Z,37.17
2017-07-02T04:31:58.823Z,38.57
2017-07-02T04:34:25.791Z,38.57
2017-07-02T04:36:52.434Z,27.80
2017-07-02T04:39:19.095Z,48.90
2017-07-02T04:41:45.732Z,35.50
2017-07-02T04:44:12.381Z,31.23
2017-07-02T04:46:39.038Z,33.73
2017-07-02T04:49:05.678Z,39.33
2017-07-02T04:51:32.331Z,32.77
2017-07-02T04:53:58.947Z,31.70
2017-07-02T04:56:25.589Z,28.70
2017-07-02T04:58:52.229Z,23.47
2017-07-02T05:01:18.856Z,32.43
2017-07-02T05:03:45.508Z,30.03
2017-07-02T05:06:12.147Z,27.70
2017-07-02T05:08:38.792Z,25.50
2017-07-02T05:11:05.454Z,21.83
2017-07-02T05:13:32.072Z,19.90
2017-07-02T05:15:58.703Z,22.73
2017-07-02T05:18:25.348Z,22.30
2017-07-02T05:20:52.007Z,24.17
2017-07-02T05:23:18.634Z,24.77
2017-07-02T05:25:45.247Z,34.63
2017-07-02T05:28:11.899Z,18.57
2017-07-02T05:30:38.548Z,18.73
2017-07-02T05:33:05.186Z,30.23
2017-07-02T05:35:31.814Z,22.60
2017-07-02T05:37:58.467Z,12.80
2017-07-02T05:40:25.115Z,23.50
2017-07-02T05:42:51.744Z,29.40
2017-07-02T05:45:18.406Z,15.03
2017-07-02T05:47:45.048Z,15.40
2017-07-02T05:50:11.666Z,21.97
2017-07-02T05:52:38.277Z,20.43
2017-07-02T05:55:04.927Z,19.90
2017-07-02T05:57:31.855Z,20.13
2017-07-02T05:59:58.480Z,25.20
2017-07-02T06:02:25.130Z,20.90
2017-07-02T06:04:51.804Z,21.87
2017-07-02T06:07:18.417Z,28.27
2017-07-02T06:09:45.723Z,17.33
2017-07-02T06:12:12.373Z,16.70
2017-07-02T06:14:41.860Z,22.23
2017-07-02T06:17:10.180Z,23.53
2017-07-02T06:19:37.763Z,19.93
2017-07-02T06:22:06.486Z,26.93
2017-07-02T06:24:35.993Z,20.30
2017-07-02T06:27:04.978Z,23.70
2017-07-02T06:29:32.783Z,15.50
2017-07-02T06:31:59.422Z,32.10
2017-07-02T06:34:26.078Z,17.33
2017-07-02T06:36:52.703Z,20.67
2017-07-02T06:39:19.337Z,18.20
2017-07-02T06:41:45.980Z,14.40
2017-07-02T06:44:12.600Z,20.33
2017-07-02T06:46:39.582Z,27.43
2017-07-02T06:49:06.217Z,17.87
2017-07-02T06:51:32.868Z,22.10
2017-07-02T06:53:59.519Z,29.97
2017-07-02T06:56:26.163Z,24.47
2017-07-02T06:58:53.124Z,11.67
2017-07-02T07:01:19.779Z,16.27
2017-07-02T07:03:46.430Z,18.73
2017-07-02T07:06:13.997Z,26.40
2017-07-02T07:08:42.391Z,12.23
2017-07-02T07:11:09.045Z,21.73
2017-07-02T07:13:35.712Z,36.30
2017-07-02T07:16:02.365Z,15.10
2017-07-02T07:18:30.663Z,22.77
2017-07-02T07:20:58.041Z,26.27
2017-07-02T07:23:24.658Z,17.63
2017-07-02T07:25:51.292Z,12.70
2017-07-02T07:28:17.936Z,19.73
2017-07-02T07:30:48.307Z,13.40
2017-07-02T07:33:14.961Z,24.90
2017-07-02T07:35:41.610Z,23.13
2017-07-02T07:38:08.248Z,18.83
2017-07-02T07:40:34.895Z,18.03
2017-07-02T07:43:05.661Z,24.03
2017-07-02T07:45:32.299Z,18.17
2017-07-02T07:47:58.933Z,24.30
2017-07-02T07:50:25.594Z,19.17
2017-07-02T07:52:52.219Z,16.60
2017-07-02T07:55:18.840Z,19.47
2017-07-02T07:57:45.509Z,18.43
2017-07-02T08:00:12.151Z,17.20
2017-07-02T08:02:38.791Z,15.97
2017-07-02T08:05:07.950Z,26.40
2017-07-02T08:07:35.024Z,18.13
2017-07-02T08:10:01.682Z,26.87
2017-07-02T08:12:28.316Z,19.53
2017-07-02T08:14:57.717Z,20.97
2017-07-02T08:17:24.386Z,20.30
2017-07-02T08:19:54.112Z,22.37
2017-07-02T08:22:20.990Z,20.97
2017-07-02T08:24:47.670Z,19.80
2017-07-02T08:27:15.965Z,23.27
2017-07-02T08:29:45.093Z,20.30
2017-07-02T08:32:11.728Z,22.27
2017-07-02T08:34:40.187Z,26.27
2017-07-02T08:37:06.851Z,25.73
2017-07-02T08:39:34.461Z,20.43
2017-07-02T08:42:04.303Z,27.13
2017-07-02T08:44:32.328Z,32.23
2017-07-02T08:46:59.609Z,23.50
2017-07-02T08:49:31.478Z,27.83
2017-07-02T08:51:59.380Z,24.13
2017-07-02T08:54:28.323Z,25.30
2017-07-02T08:56:56.992Z,22.33
2017-07-02T08:59:27.931Z,23.80
2017-07-02T09:01:54.561Z,24.80
2017-07-02T09:04:21.205Z,31.67
2017-07-02T09:06:47.883Z,22.87
2017-07-02T09:09:14.515Z,27.33
2017-07-02T09:11:41.436Z,23.43
2017-07-02T09:14:08.088Z,23.70
2017-07-02T09:16:34.716Z,20.27
2017-07-02T09:19:01.363Z,35.93
2017-07-02T09:21:28.743Z,18.37
2017-07-02T09:23:55.408Z,24.77
2017-07-02T09:26:22.039Z,26.00
2017-07-02T09:28:48.685Z,20.70
2017-07-02T09:31:15.348Z,20.03
2017-07-02T09:33:42.147Z,30.50
2017-07-02T09:36:09.269Z,27.67
2017-07-02T09:38:35.894Z,25.60
2017-07-02T09:41:02.568Z,33.03
2017-07-02T09:43:31.798Z,24.43
2017-07-02T09:45:58.445Z,29.30
2017-07-02T09:48:25.091Z,27.50
2017-07-02T09:50:51.732Z,28.10
2017-07-02T09:53:18.422Z,27.90
2017-07-02T09:55:45.056Z,40.27
2017-07-02T09:58:11.715Z,27.60
2017-07-02T10:00:38.371Z,23.80
2017-07-02T10:03:05.124Z,24.27
2017-07-02T10:05:32.684Z,23.97
2017-07-02T10:07:59.318Z,26.23
2017-07-02T10:10:28.591Z,25.57
2017-07-02T10:12:55.268Z,22.27
2017-07-02T10:15:21.905Z,22.50
2017-07-02T10:17:48.576Z,31.50
2017-07-02T10:20:15.221Z,23.40
2017-07-02T10:22:41.835Z,27.90
2017-07-02T10:25:08.484Z,26.00
2017-07-02T10:27:35.118Z,25.10
2017-07-02T10:30:01.792Z,26.00
2017-07-02T10:32:28.456Z,23.43
2017-07-02T10:34:55.090Z,25.00
2017-07-02T10:37:21.752Z,50.03
2017-07-02T10:39:48.854Z,26.20
2017-07-02T10:42:15.540Z,21.10
2017-07-02T10:44:42.206Z,25.23
2017-07-02T10:47:08.836Z,23.90
2017-07-02T10:49:35.529Z,25.73
2017-07-02T10:52:02.801Z,48.63
2017-07-02T10:54:29.461Z,23.30
2017-07-02T10:56:56.580Z,28.13
2017-07-02T10:59:25.503Z,27.07
2017-07-02T11:01:52.155Z,22.50
2017-07-02T11:04:18.779Z,23.27
2017-07-02T11:06:47.344Z,21.23
2017-07-02T11:09:13.995Z,23.83
2017-07-02T11:11:40.691Z,27.50
2017-07-02T11:14:08.292Z,28.00
2017-07-02T11:16:34.922Z,27.93
2017-07-02T11:19:01.579Z,34.80
2017-07-02T11:21:28.231Z,28.03
2017-07-02T11:23:54.863Z,22.73
2017-07-02T11:26:21.799Z,22.77
2017-07-02T11:28:48.425Z,27.93
2017-07-02T11:31:15.106Z,31.43
2017-07-02T11:33:41.759Z,28.77
2017-07-02T11:36:08.388Z,25.90
2017-07-02T11:38:35.047Z,33.23
2017-07-02T11:41:01.676Z,23.87
2017-07-02T11:43:30.844Z,23.07
2017-07-02T11:45:59.372Z,26.50
2017-07-02T11:48:29.415Z,30.83
2017-07-02T11:50:58.206Z,24.73
2017-07-02T11:53:26.760Z,42.90
2017-07-02T11:55:57.335Z,47.60
2017-07-02T11:58:25.521Z,46.03
2017-07-02T12:00:55.100Z,51.20
2017-07-02T12:03:23.699Z,33.23
2017-07-02T12:05:53.375Z,30.00
2017-07-02T12:08:22.495Z,28.97
2017-07-02T12:10:49.147Z,31.03
2017-07-02T12:13:15.800Z,52.77
2017-07-02T12:15:44.475Z,26.00
2017-07-02T12:18:12.580Z,25.60
2017-07-02T12:20:39.823Z,27.40
2017-07-02T12:23:10.343Z,24.73
2017-07-02T12:25:38.031Z,30.43
2017-07-02T12:28:06.639Z,24.63
2017-07-02T12:30:36.160Z,25.13
2017-07-02T12:33:06.729Z,22.77
2017-07-02T12:35:33.390Z,23.73
2017-07-02T12:38:01.387Z,28.07
2017-07-02T12:40:28.031Z,20.60
2017-07-02T12:42:54.680Z,19.23
2017-07-02T12:45:25.138Z,15.70
2017-07-02T12:47:53.873Z,14.90
2017-07-02T12:50:23.917Z,16.70
2017-07-02T12:52:52.414Z,17.17
2017-07-02T12:55:24.070Z,16.07
2017-07-02T12:57:51.558Z,16.33
2017-07-02T13:00:21.706Z,16.17
2017-07-02T13:02:50.430Z,15.43
2017-07-02T13:05:19.522Z,14.30
2017-07-02T13:07:49.930Z,14.80
2017-07-02T13:10:18.707Z,13.60
2017-07-02T13:12:47.463Z,12.90
2017-07-02T13:15:17.603Z,14.13
2017-07-02T13:17:46.117Z,11.43
2017-07-02T13:20:14.068Z,8.83
2017-07-02T13:22:40.684Z,9.23
2017-07-02T13:25:07.327Z,9.63
2017-07-02T13:27:33.942Z,9.93
2017-07-02T13:30:02.983Z,9.23
2017-07-02T13:32:32.319Z,7.90
2017-07-02T13:34:59.786Z,9.93
2017-07-02T13:37:30.573Z,9.13
2017-07-02T13:40:00.563Z,8.47
2017-07-02T13:42:27.222Z,7.50
2017-07-02T13:44:57.501Z,7.63
2017-07-02T13:47:26.500Z,6.20
2017-07-02T13:49:53.142Z,7.27
2017-07-02T13:52:19.752Z,6.87
2017-07-02T13:54:46.404Z,7.80
2017-07-02T13:57:13.038Z,6.70
2017-07-02T13:59:39.656Z,8.63
2017-07-02T14:02:06.301Z,12.10
2017-07-02T14:04:32.967Z,8.47
2017-07-02T14:06:59.605Z,12.53
2017-07-02T14:09:26.216Z,7.70
2017-07-02T14:11:52.839Z,8.10
2017-07-02T14:14:22.503Z,11.20
2017-07-02T14:16:49.116Z,11.23
2017-07-02T14:19:15.775Z,11.20
2017-07-02T14:21:42.408Z,9.30
2017-07-02T14:24:09.029Z,9.63
2017-07-02T14:26:35.686Z,10.40
2017-07-02T14:29:02.324Z,9.27
2017-07-02T14:31:30.927Z,13.80
2017-07-02T14:33:58.470Z,10.23
2017-07-02T14:36:25.138Z,11.07
2017-07-02T14:38:51.783Z,10.57
2017-07-02T14:41:18.432Z,10.63
2017-07-02T14:43:45.067Z,10.50
2017-07-02T14:46:11.718Z,13.37
2017-07-02T14:48:38.359Z,11.07
2017-07-02T14:51:04.991Z,11.00
2017-07-02T14:53:31.633Z,11.87
2017-07-02T14:55:58.323Z,10.57
2017-07-02T14:58:24.955Z,11.90
2017-07-02T15:00:51.619Z,13.70
2017-07-02T15:03:18.252Z,17.20
2017-07-02T15:05:44.879Z,15.20
2017-07-02T15:08:11.512Z,16.60
2017-07-02T15:10:38.148Z,19.00
2017-07-02T15:13:04.795Z,17.67
2017-07-02T15:15:31.426Z,16.70
2017-07-02T15:18:00.739Z,17.63
2017-07-02T15:20:31.094Z,14.50
2017-07-02T15:23:00.599Z,10.40
2017-07-02T15:25:27.746Z,9.23
2017-07-02T15:27:55.846Z,4.53
2017-07-02T15:30:24.669Z,6.63
2017-07-02T15:32:51.340Z,4.43
2017-07-02T15:35:24.927Z,3.97
2017-07-02T15:37:52.705Z,3.97
2017-07-02T15:40:21.208Z,4.03
2017-07-02T15:42:49.552Z,5.20
2017-07-02T15:45:20.414Z,12.00
2017-07-02T15:47:48.239Z,6.13
2017-07-02T15:50:18.738Z,10.70
2017-07-02T15:52:47.996Z,8.30
2017-07-02T15:55:18.081Z,8.40
2017-07-02T15:57:46.490Z,10.93
2017-07-02T16:00:14.363Z,7.20
2017-07-02T16:02:42.561Z,6.73
2017-07-02T16:05:13.325Z,6.50
2017-07-02T16:07:43.383Z,5.70
2017-07-02T16:10:11.738Z,3.33
2017-07-02T16:12:40.769Z,8.60
2017-07-02T16:15:08.698Z,5.40
2017-07-02T16:17:39.457Z,8.47
2017-07-02T16:20:08.010Z,5.67
2017-07-02T16:22:37.284Z,5.30
2017-07-02T16:25:06.301Z,4.20
2017-07-02T16:27:35.164Z,7.83
2017-07-02T16:30:03.783Z,6.67
2017-07-02T16:32:34.915Z,4.67
2017-07-02T16:35:03.371Z,5.40
2017-07-02T16:37:31.768Z,6.37
2017-07-02T16:40:01.967Z,4.33
2017-07-02T16:42:32.326Z,7.27
2017-07-02T16:45:01.625Z,5.50
2017-07-02T16:47:29.988Z,7.20
2017-07-02T16:49:57.412Z,6.93
2017-07-02T16:52:26.757Z,10.30
2017-07-02T16:54:57.117Z,5.47
2017-07-02T16:57:27.159Z,3.00
2017-07-02T16:59:55.180Z,4.23
2017-07-02T17:02:22.423Z,5.87
2017-07-02T17:04:51.240Z,6.03
2017-07-02T17:07:21.548Z,8.43
2017-07-02T17:09:51.911Z,3.93
2017-07-02T17:12:21.412Z,4.40
2017-07-02T17:14:50.428Z,5.67
2017-07-02T17:17:20.143Z,6.50
2017-07-02T17:19:46.935Z,7.40
2017-07-02T17:22:18.425Z,7.93
2017-07-02T17:24:47.640Z,7.50
2017-07-02T17:27:15.455Z,5.93
2017-07-02T17:29:45.140Z,10.27
2017-07-02T17:32:11.764Z,5.10
2017-07-02T17:34:41.446Z,4.90
2017-07-02T17:37:12.308Z,4.37
2017-07-02T17:39:41.031Z,9.60
2017-07-02T17:42:07.664Z,6.20
2017-07-02T17:44:39.428Z,6.70
2017-07-02T17:47:07.358Z,6.00
2017-07-02T17:49:37.142Z,4.10
2017-07-02T17:52:06.604Z,10.30
2017-07-02T17:54:36.824Z,8.50
2017-07-02T17:57:08.220Z,5.13
2017-07-02T17:59:36.365Z,4.57
2017-07-02T18:02:08.344Z,4.53
2017-07-02T18:04:37.379Z,7.60
2017-07-02T18:07:07.290Z,4.33
2017-07-02T18:09:36.546Z,5.57
2017-07-02T18:12:05.103Z,5.80
2017-07-02T18:14:32.417Z,3.80
2017-07-02T18:17:01.119Z,7.73
2017-07-02T18:19:31.258Z,5.50
2017-07-02T18:22:02.682Z,3.47
2017-07-02T18:24:36.312Z,7.77
2017-07-02T18:27:04.528Z,9.13
2017-07-02T18:29:33.776Z,6.60
2017-07-02T18:32:05.674Z,3.30
2017-07-02T18:34:37.686Z,4.93
2017-07-02T18:37:07.459Z,4.27
2017-07-02T18:39:35.819Z,7.77
2017-07-02T18:42:05.586Z,13.53
2017-07-02T18:44:34.650Z,4.80
2017-07-02T18:47:04.906Z,7.27
2017-07-02T18:49:32.955Z,5.40
2017-07-02T18:52:00.983Z,9.07
2017-07-02T18:54:29.935Z,2.27
2017-07-02T18:56:59.411Z,7.33
2017-07-02T18:59:30.889Z,9.30
2017-07-02T19:02:03.981Z,4.57
2017-07-02T19:04:33.796Z,7.87
2017-07-02T19:07:01.736Z,7.47
2017-07-02T19:09:30.945Z,8.20
2017-07-02T19:12:03.420Z,5.50
2017-07-02T19:14:32.406Z,9.20
2017-07-02T19:17:02.551Z,5.97
2017-07-02T19:19:31.377Z,8.27
2017-07-02T19:22:00.815Z,8.20
2017-07-02T19:24:30.248Z,5.77
2017-07-02T19:27:01.285Z,4.83
2017-07-02T19:29:29.583Z,8.03
2017-07-02T19:32:00.951Z,7.03
2017-07-02T19:34:33.069Z,11.83
2017-07-02T19:37:00.167Z,8.13
2017-07-02T19:39:27.967Z,6.67
2017-07-02T19:41:57.919Z,8.70
2017-07-02T19:44:27.880Z,8.97
2017-07-02T19:46:57.051Z,8.47
2017-07-02T19:49:24.435Z,17.23
2017-07-02T19:51:53.228Z,8.70
2017-07-02T19:54:23.190Z,10.33
2017-07-02T19:56:54.217Z,12.10
2017-07-02T19:59:24.236Z,5.37
2017-07-02T20:01:54.512Z,5.27
2017-07-02T20:04:23.449Z,7.00
2017-07-02T20:06:51.055Z,11.73
2017-07-02T20:09:19.125Z,8.23
2017-07-02T20:11:47.411Z,19.10
2017-07-02T20:14:17.158Z,14.37
2017-07-02T20:16:47.863Z,16.40
2017-07-02T20:19:14.521Z,9.53
2017-07-02T20:21:41.151Z,14.57
2017-07-02T20:24:07.811Z,11.27
2017-07-02T20:26:34.482Z,15.73
2017-07-02T20:29:01.427Z,12.30
2017-07-02T20:31:28.058Z,14.53
2017-07-02T20:33:54.711Z,13.60
2017-07-02T20:36:21.344Z,11.17
2017-07-02T20:38:48.039Z,9.80
2017-07-02T20:41:14.685Z,14.17
2017-07-02T20:43:41.344Z,8.33
2017-07-02T20:46:07.980Z,5.97
2017-07-02T20:48:34.653Z,13.07
2017-07-02T20:51:01.314Z,15.80
2017-07-02T20:53:27.963Z,11.40
2017-07-02T20:55:54.587Z,15.30
2017-07-02T20:58:21.284Z,13.57
2017-07-02T21:00:47.924Z,16.57
2017-07-02T21:03:14.567Z,11.23
2017-07-02T21:05:41.212Z,11.77
2017-07-02T21:08:07.879Z,10.23
2017-07-02T21:10:34.507Z,11.87
2017-07-02T21:13:01.191Z,22.00
2017-07-02T21:15:27.833Z,19.30
2017-07-02T21:17:54.476Z,23.10
2017-07-02T21:20:21.128Z,18.57
2017-07-02T21:22:47.771Z,17.93
2017-07-02T21:25:14.414Z,16.83
2017-07-02T21:27:41.040Z,17.17
2017-07-02T21:30:07.771Z,32.77
2017-07-02T21:32:34.405Z,9.97
2017-07-02T21:35:01.044Z,16.90
2017-07-02T21:37:27.676Z,23.57
2017-07-02T21:39:54.329Z,21.83
2017-07-02T21:42:20.975Z,19.97
2017-07-02T21:44:47.622Z,14.93
2017-07-02T21:47:14.252Z,12.37
2017-07-02T21:49:40.920Z,13.57
2017-07-02T21:52:07.535Z,13.43
2017-07-02T21:54:34.609Z,16.00
2017-07-02T21:57:01.230Z,18.10
2017-07-02T21:59:27.931Z,20.43
2017-07-02T22:01:55.232Z,12.40
2017-07-02T22:04:21.881Z,18.37
2017-07-02T22:06:48.531Z,9.07
2017-07-02T22:09:15.178Z,14.57
2017-07-02T22:11:41.822Z,10.50
2017-07-02T22:14:08.474Z,9.90
2017-07-02T22:16:35.704Z,12.03
2017-07-02T22:19:02.353Z,21.00
2017-07-02T22:21:29.001Z,16.43
2017-07-02T22:23:55.651Z,13.93
2017-07-02T22:26:22.294Z,15.90
2017-07-02T22:28:48.951Z,15.87
2017-07-02T22:31:15.578Z,18.23
2017-07-02T22:33:42.212Z,12.40
2017-07-02T22:36:08.848Z,13.77
2017-07-02T22:38:35.487Z,14.40
2017-07-02T22:41:03.013Z,9.77
2017-07-02T22:43:29.639Z,12.93
2017-07-02T22:45:56.271Z,8.60
2017-07-02T22:48:22.888Z,11.23
2017-07-02T22:50:49.493Z,8.63
2017-07-02T22:53:16.131Z,16.80
2017-07-02T22:55:43.113Z,12.83
2017-07-02T22:58:09.751Z,9.53
2017-07-02T23:00:36.394Z,10.00
2017-07-02T23:03:03.031Z,13.93
2017-07-02T23:05:29.647Z,6.90
2017-07-02T23:07:56.275Z,10.40
2017-07-02T23:10:22.940Z,8.30
2017-07-02T23:12:49.591Z,21.47
2017-07-02T23:15:16.260Z,12.60
2017-07-02T23:17:42.920Z,13.03
2017-07-02T23:20:09.558Z,15.37
2017-07-02T23:22:36.236Z,6.90
2017-07-02T23:25:02.869Z,15.60
2017-07-02T23:27:29.496Z,7.63
2017-07-02T23:29:56.116Z,11.10
2017-07-02T23:32:22.761Z,13.03
2017-07-02T23:34:49.399Z,10.10
2017-07-02T23:37:16.051Z,9.33
2017-07-02T23:39:42.671Z,8.27
2017-07-02T23:42:09.302Z,12.27
2017-07-02T23:44:35.963Z,27.43
2017-07-02T23:47:02.574Z,10.37
2017-07-02T23:49:29.208Z,9.33
2017-07-02T23:51:55.857Z,8.20
2017-07-02T23:54:22.480Z,11.13
2017-07-02T23:56:49.139Z,10.70
2017-07-02T23:59:15.780Z,10.07
